createdAt,value
2023-10-29T00:01:59.636Z,1.42
2023-10-29T00:04:27.832Z,1.58
2023-10-29T00:06:56.376Z,1.50
2023-10-29T00:09:28.864Z,1.40
2023-10-29T00:11:57.725Z,1.63
2023-10-29T00:14:26.130Z,1.70
2023-10-29T00:16:57.789Z,1.60
2023-10-29T00:19:26.457Z,2.25
2023-10-29T00:21:55.493Z,1.20
2023-10-29T00:24:25.502Z,1.60
2023-10-29T00:26:53.851Z,1.67
2023-10-29T00:29:22.427Z,1.30
2023-10-29T00:31:50.600Z,1.60
2023-10-29T00:34:18.821Z,1.20
2023-10-29T00:36:49.879Z,1.35
2023-10-29T00:39:18.949Z,1.10
2023-10-29T00:41:48.688Z,1.05
2023-10-29T00:44:18.131Z,0.88
2023-10-29T00:46:46.439Z,1.27
2023-10-29T00:49:14.966Z,0.98
2023-10-29T00:51:43.162Z,0.90
2023-10-29T00:54:11.945Z,1.17
2023-10-29T00:56:40.366Z,0.88
2023-10-29T00:59:13.061Z,0.70
2023-10-29T01:01:42.222Z,0.50
2023-10-29T01:04:10.768Z,0.68
2023-10-29T01:06:42.067Z,0.50
2023-10-29T01:09:11.549Z,0.90
2023-10-29T01:11:40.175Z,0.80
2023-10-29T01:14:09.967Z,0.73
2023-10-29T01:16:38.235Z,0.90
2023-10-29T01:19:06.733Z,0.82
2023-10-29T01:21:35.284Z,1.27
2023-10-29T01:24:04.353Z,1.13
2023-10-29T01:26:33.489Z,0.90
2023-10-29T01:29:05.690Z,1.48
2023-10-29T01:31:35.488Z,0.88
2023-10-29T01:34:03.830Z,1.10
2023-10-29T01:36:32.092Z,0.90
2023-10-29T01:39:01.516Z,1.15
2023-10-29T01:41:29.802Z,1.08
2023-10-29T01:43:58.381Z,0.80
2023-10-29T01:46:26.611Z,0.75
2023-10-29T01:48:57.129Z,0.90
2023-10-29T01:51:28.035Z,0.80
2023-10-29T01:53:56.295Z,0.80
2023-10-29T01:56:24.918Z,0.70
2023-10-29T01:58:53.107Z,0.93
2023-10-29T02:01:21.324Z,1.08
2023-10-29T02:06:47.334Z,0.95
2023-10-29T02:09:15.838Z,1.10
2023-10-29T02:11:44.210Z,1.05
2023-10-29T02:14:12.376Z,0.80
2023-10-29T02:16:42.040Z,1.40
2023-10-29T02:19:10.175Z,1.05
2023-10-29T02:21:38.818Z,0.90
2023-10-29T02:24:09.444Z,1.40
2023-10-29T02:26:37.777Z,0.90
2023-10-29T02:29:06.153Z,0.50
2023-10-29T02:31:34.166Z,0.85
2023-10-29T02:34:02.590Z,0.85
2023-10-29T02:36:31.098Z,0.98
2023-10-29T02:38:59.376Z,0.60
2023-10-29T02:41:28.966Z,0.60
2023-10-29T02:43:57.656Z,0.65
2023-10-29T02:46:26.120Z,0.80
2023-10-29T02:48:54.347Z,0.95
2023-10-29T02:51:22.977Z,1.13
2023-10-29T02:53:51.685Z,0.60
2023-10-29T02:56:20.080Z,0.60
2023-10-29T02:58:49.828Z,0.90
2023-10-29T03:01:18.546Z,0.73
2023-10-29T03:03:47.132Z,0.88
2023-10-29T03:06:15.887Z,0.77
2023-10-29T03:08:45.017Z,1.00
2023-10-29T03:11:14.061Z,0.90
2023-10-29T03:13:42.011Z,0.57
2023-10-29T03:16:11.742Z,0.90
2023-10-29T03:18:40.128Z,0.70
2023-10-29T03:21:08.062Z,0.77
2023-10-29T03:23:35.935Z,1.13
2023-10-29T03:26:05.001Z,1.20
2023-10-29T03:28:32.989Z,1.02
2023-10-29T03:31:01.403Z,1.02
2023-10-29T03:33:30.822Z,1.00
2023-10-29T03:36:00.420Z,1.13
2023-10-29T03:38:28.394Z,0.98
2023-10-29T03:40:57.910Z,1.20
2023-10-29T03:43:25.801Z,0.93
2023-10-29T03:45:54.208Z,1.20
2023-10-29T03:48:22.404Z,1.42
2023-10-29T03:50:52.688Z,1.08
2023-10-29T03:53:21.076Z,1.23
2023-10-29T03:55:52.203Z,1.15
2023-10-29T03:58:20.521Z,1.60
2023-10-29T04:00:54.131Z,1.23
2023-10-29T04:03:22.799Z,1.55
2023-10-29T04:05:52.545Z,1.30
2023-10-29T04:08:20.899Z,1.30
2023-10-29T04:10:49.121Z,1.10
2023-10-29T04:13:17.307Z,1.63
2023-10-29T04:15:45.659Z,1.20
2023-10-29T04:18:13.897Z,1.27
2023-10-29T04:20:42.123Z,1.10
2023-10-29T04:23:12.090Z,1.30
2023-10-29T04:25:40.189Z,1.00
2023-10-29T04:28:08.810Z,1.27
2023-10-29T04:30:36.951Z,1.10
2023-10-29T04:33:05.586Z,1.23
2023-10-29T04:35:33.812Z,1.02
2023-10-29T04:38:02.181Z,1.35
2023-10-29T04:40:32.027Z,1.02
2023-10-29T04:43:00.148Z,1.10
2023-10-29T04:45:28.593Z,1.02
2023-10-29T04:47:56.569Z,1.17
2023-10-29T04:50:25.186Z,1.17
2023-10-29T04:52:53.465Z,0.93
2023-10-29T04:55:22.078Z,1.40
2023-10-29T04:57:51.721Z,1.00
2023-10-29T05:00:20.335Z,0.98
2023-10-29T05:02:48.715Z,1.10
2023-10-29T05:05:17.450Z,1.20
2023-10-29T05:07:46.554Z,1.23
2023-10-29T05:10:15.757Z,1.25
2023-10-29T05:12:44.033Z,1.30
2023-10-29T05:15:14.449Z,1.48
2023-10-29T05:17:43.817Z,1.48
2023-10-29T05:20:12.998Z,1.58
2023-10-29T05:22:41.544Z,1.00
2023-10-29T05:25:10.903Z,1.35
2023-10-29T05:27:39.208Z,1.48
2023-10-29T05:30:09.111Z,1.25
2023-10-29T05:32:39.928Z,1.23
2023-10-29T05:35:10.162Z,1.40
2023-10-29T05:37:38.579Z,1.60
2023-10-29T05:40:09.362Z,1.52
2023-10-29T05:42:38.078Z,1.10
2023-10-29T05:45:08.154Z,1.10
2023-10-29T05:47:36.796Z,1.40
2023-10-29T05:50:07.566Z,1.15
2023-10-29T05:52:36.568Z,1.30
2023-10-29T05:55:06.100Z,1.38
2023-10-29T05:57:34.600Z,1.45
2023-10-29T06:00:03.189Z,1.48
2023-10-29T06:02:40.637Z,1.20
2023-10-29T06:05:10.875Z,1.10
2023-10-29T06:07:44.327Z,1.35
2023-10-29T06:12:43.771Z,1.10
2023-10-29T06:15:13.218Z,1.40
2023-10-29T06:17:43.182Z,1.00
2023-10-29T06:20:18.403Z,1.40
2023-10-29T06:22:47.349Z,1.40
2023-10-29T06:25:17.014Z,1.50
2023-10-29T06:27:45.776Z,1.20
2023-10-29T06:30:14.811Z,1.40
2023-10-29T06:32:43.293Z,1.27
2023-10-29T06:35:13.376Z,1.33
2023-10-29T06:37:41.643Z,1.40
2023-10-29T06:40:11.284Z,1.33
2023-10-29T06:42:40.063Z,1.50
2023-10-29T06:45:09.107Z,1.30
2023-10-29T06:47:37.439Z,1.33
2023-10-29T06:50:06.704Z,1.50
2023-10-29T06:52:36.166Z,1.25
2023-10-29T06:55:04.483Z,1.65
2023-10-29T06:57:32.463Z,1.77
2023-10-29T07:00:01.928Z,1.65
2023-10-29T07:02:30.613Z,1.50
2023-10-29T07:05:00.835Z,1.70
2023-10-29T07:07:31.156Z,1.58
2023-10-29T07:10:01.146Z,1.85
2023-10-29T07:12:32.325Z,1.65
2023-10-29T07:15:00.881Z,1.70
2023-10-29T07:17:29.154Z,1.50
2023-10-29T07:19:57.827Z,2.05
2023-10-29T07:22:26.711Z,1.73
2023-10-29T07:24:55.296Z,1.45
2023-10-29T07:27:24.834Z,1.88
2023-10-29T07:29:53.800Z,1.70
2023-10-29T07:32:22.147Z,1.88
2023-10-29T07:34:50.228Z,1.50
2023-10-29T07:37:19.298Z,1.50
2023-10-29T07:39:50.402Z,1.30
2023-10-29T07:42:18.748Z,1.40
2023-10-29T07:44:49.021Z,1.60
2023-10-29T07:47:17.367Z,1.75
2023-10-29T07:49:45.271Z,1.60
2023-10-29T07:52:13.824Z,1.83
2023-10-29T07:54:42.140Z,1.50
2023-10-29T07:57:10.532Z,1.38
2023-10-29T07:59:38.971Z,1.30
2023-10-29T08:02:11.156Z,1.48
2023-10-29T08:04:45.496Z,1.45
2023-10-29T08:07:14.883Z,1.23
2023-10-29T08:09:46.219Z,1.33
2023-10-29T08:12:14.711Z,1.20
2023-10-29T08:14:43.486Z,1.20
2023-10-29T08:17:15.439Z,1.30
2023-10-29T08:19:44.349Z,1.52
2023-10-29T08:22:14.487Z,1.15
2023-10-29T08:24:43.714Z,1.30
2023-10-29T08:27:16.090Z,1.25
2023-10-29T08:29:46.908Z,1.40
2023-10-29T08:32:22.672Z,1.58
2023-10-29T08:34:54.548Z,1.20
2023-10-29T08:37:24.355Z,1.70
2023-10-29T08:40:02.169Z,1.30
2023-10-29T08:42:35.283Z,1.58
2023-10-29T08:45:06.625Z,1.20
2023-10-29T08:47:38.394Z,1.33
2023-10-29T08:50:11.419Z,0.90
2023-10-29T08:52:40.646Z,1.30
2023-10-29T08:55:10.309Z,1.10
2023-10-29T08:58:03.110Z,1.23
2023-10-29T09:00:45.325Z,2.25
2023-10-29T09:03:16.290Z,1.20
2023-10-29T09:05:47.960Z,1.30
2023-10-29T09:08:18.858Z,1.10
2023-10-29T09:10:48.142Z,1.05
2023-10-29T09:13:20.347Z,0.85
2023-10-29T09:15:51.386Z,1.10
2023-10-29T09:18:21.425Z,1.00
2023-10-29T09:20:52.111Z,1.05
2023-10-29T09:23:20.333Z,1.10
2023-10-29T09:25:51.248Z,1.30
2023-10-29T09:28:24.808Z,1.20
2023-10-29T09:30:53.061Z,1.10
2023-10-29T09:33:26.000Z,1.20
2023-10-29T09:35:57.427Z,1.20
2023-10-29T09:38:27.917Z,1.25
2023-10-29T09:41:03.517Z,1.33
2023-10-29T09:43:41.176Z,1.20
2023-10-29T09:46:12.346Z,1.55
2023-10-29T09:48:45.887Z,1.13
2023-10-29T09:51:14.390Z,1.23
2023-10-29T09:53:43.624Z,1.20
2023-10-29T09:56:16.887Z,1.33
2023-10-29T09:58:45.044Z,1.15
2023-10-29T10:01:14.057Z,1.35
2023-10-29T10:03:44.626Z,1.10
2023-10-29T10:06:16.418Z,1.30
2023-10-29T10:08:46.171Z,1.35
2023-10-29T10:11:24.677Z,0.98
2023-10-29T10:13:53.645Z,1.20
2023-10-29T10:16:23.226Z,1.40
2023-10-29T10:18:55.381Z,0.98
2023-10-29T10:21:26.260Z,1.10
2023-10-29T10:23:56.658Z,1.30
2023-10-29T10:26:34.684Z,0.95
2023-10-29T10:29:04.424Z,1.00
2023-10-29T10:31:34.968Z,0.90
2023-10-29T10:34:15.243Z,0.88
2023-10-29T10:36:44.612Z,1.33
2023-10-29T10:39:13.934Z,1.23
2023-10-29T10:41:44.577Z,1.10
2023-10-29T10:44:14.966Z,1.08
2023-10-29T10:46:50.913Z,1.17
2023-10-29T10:49:23.102Z,0.95
2023-10-29T10:51:55.823Z,1.08
2023-10-29T10:54:25.957Z,1.20
2023-10-29T10:56:55.628Z,1.25
2023-10-29T10:59:41.196Z,1.05
2023-10-29T11:02:15.521Z,1.27
2023-10-29T11:04:52.254Z,1.58
2023-10-29T11:07:21.295Z,1.30
2023-10-29T11:09:50.322Z,1.20
2023-10-29T11:12:21.402Z,1.20
2023-10-29T11:15:14.059Z,1.10
2023-10-29T11:17:59.850Z,1.20
2023-10-29T11:20:58.483Z,1.40
2023-10-29T11:23:31.234Z,1.25
2023-10-29T11:26:25.999Z,1.90
2023-10-29T11:28:56.258Z,1.73
2023-10-29T11:31:27.375Z,1.20
2023-10-29T11:34:34.727Z,1.42
2023-10-29T11:37:38.317Z,1.23
2023-10-29T11:40:35.313Z,0.90
2023-10-29T11:43:22.635Z,1.33
2023-10-29T11:45:55.746Z,1.25
2023-10-29T11:48:26.122Z,1.20
2023-10-29T11:51:20.715Z,1.40
2023-10-29T11:53:49.464Z,1.58
2023-10-29T11:56:22.607Z,1.58
2023-10-29T11:59:08.603Z,1.73
2023-10-29T12:01:41.591Z,1.50
2023-10-29T12:04:11.532Z,1.80
2023-10-29T12:06:44.506Z,2.00
2023-10-29T12:09:21.571Z,2.50
2023-10-29T12:11:54.463Z,2.13
2023-10-29T12:14:41.184Z,1.90
2023-10-29T12:17:14.002Z,1.75
2023-10-29T12:19:44.983Z,1.50
2023-10-29T12:22:19.211Z,1.55
2023-10-29T12:24:48.514Z,2.03
2023-10-29T12:27:20.777Z,1.60
2023-10-29T12:29:49.199Z,1.85
2023-10-29T12:32:18.960Z,1.42
2023-10-29T12:34:49.412Z,1.80
2023-10-29T12:37:25.600Z,1.85
2023-10-29T12:39:56.943Z,2.33
2023-10-29T12:42:54.424Z,2.40
2023-10-29T12:45:26.693Z,2.60
2023-10-29T12:48:13.368Z,2.53
2023-10-29T12:50:48.758Z,2.35
2023-10-29T12:53:23.050Z,2.60
2023-10-29T12:55:51.177Z,3.03
2023-10-29T12:58:20.617Z,2.67
2023-10-29T13:00:48.628Z,2.80
2023-10-29T13:03:16.666Z,3.65
2023-10-29T13:05:44.647Z,3.08
2023-10-29T13:08:15.372Z,3.17
2023-10-29T13:10:47.147Z,3.35
2023-10-29T13:13:16.679Z,3.78
2023-10-29T13:15:46.299Z,2.83
2023-10-29T13:18:16.028Z,3.63
2023-10-29T13:20:44.183Z,3.97
2023-10-29T13:23:12.368Z,3.00
2023-10-29T13:25:40.298Z,3.45
2023-10-29T13:28:08.174Z,2.92
2023-10-29T13:30:37.679Z,3.00
2023-10-29T13:33:06.971Z,3.67
2023-10-29T13:35:39.562Z,4.55
2023-10-29T13:38:09.620Z,3.85
2023-10-29T13:40:39.121Z,3.78
2023-10-29T13:43:07.599Z,4.10
2023-10-29T13:45:36.234Z,4.32
2023-10-29T13:48:05.891Z,4.50
2023-10-29T13:50:38.782Z,5.55
2023-10-29T13:53:07.071Z,8.75
2023-10-29T13:55:35.160Z,7.60
2023-10-29T13:58:07.245Z,5.07
2023-10-29T14:00:35.593Z,5.22
2023-10-29T14:03:03.564Z,4.57
2023-10-29T14:05:31.551Z,5.20
2023-10-29T14:08:01.349Z,6.03
2023-10-29T14:10:29.233Z,5.60
2023-10-29T14:12:57.048Z,5.40
2023-10-29T14:15:25.299Z,3.60
2023-10-29T14:17:54.572Z,2.95
2023-10-29T14:20:23.007Z,2.55
2023-10-29T14:22:51.480Z,1.10
2023-10-29T14:25:23.246Z,1.40
2023-10-29T14:27:52.163Z,1.10
2023-10-29T14:30:20.481Z,0.98
2023-10-29T14:32:48.879Z,0.60
2023-10-29T14:35:16.822Z,0.80
2023-10-29T14:37:44.701Z,1.00
2023-10-29T14:40:13.567Z,1.00
2023-10-29T14:42:45.503Z,1.30
2023-10-29T14:45:13.657Z,1.40
2023-10-29T14:47:42.235Z,1.25
2023-10-29T14:50:11.113Z,1.80
2023-10-29T14:52:39.177Z,2.15
2023-10-29T14:55:08.438Z,2.05
2023-10-29T14:57:36.014Z,2.17
2023-10-29T15:00:07.128Z,2.20
2023-10-29T15:02:35.409Z,2.78
2023-10-29T15:05:05.586Z,3.15
2023-10-29T15:07:33.686Z,3.00
2023-10-29T15:10:02.688Z,3.63
2023-10-29T15:12:30.798Z,3.33
2023-10-29T15:14:59.361Z,3.58
2023-10-29T15:17:28.798Z,3.53
2023-10-29T15:19:58.959Z,3.55
2023-10-29T15:22:27.303Z,3.20
2023-10-29T15:24:55.415Z,4.00
2023-10-29T15:27:25.446Z,3.38
2023-10-29T15:29:53.614Z,3.42
2023-10-29T15:32:21.555Z,3.00
2023-10-29T15:34:50.917Z,3.33
2023-10-29T15:37:19.823Z,3.55
2023-10-29T15:39:46.359Z,4.05
2023-10-29T15:42:14.372Z,3.17
2023-10-29T15:44:43.101Z,4.10
2023-10-29T15:47:11.332Z,4.20
2023-10-29T15:49:41.007Z,3.60
2023-10-29T15:52:10.740Z,3.92
2023-10-29T15:54:38.676Z,4.05
2023-10-29T15:57:06.849Z,4.28
2023-10-29T15:59:34.990Z,3.50
2023-10-29T16:02:03.083Z,3.47
2023-10-29T16:04:31.145Z,3.50
2023-10-29T16:06:59.436Z,3.40
2023-10-29T16:09:29.454Z,3.90
2023-10-29T16:11:57.470Z,3.25
2023-10-29T16:14:25.488Z,2.67
2023-10-29T16:16:53.371Z,3.20
2023-10-29T16:19:21.362Z,2.70
2023-10-29T16:21:49.265Z,3.35
2023-10-29T16:24:17.761Z,3.05
2023-10-29T16:26:47.823Z,2.60
2023-10-29T16:29:18.487Z,2.50
2023-10-29T16:31:46.895Z,2.60
2023-10-29T16:34:14.743Z,2.17
2023-10-29T16:36:42.763Z,2.97
2023-10-29T16:39:11.246Z,2.70
2023-10-29T16:41:39.164Z,2.20
2023-10-29T16:44:08.484Z,2.03
2023-10-29T16:46:36.715Z,1.98
2023-10-29T16:49:05.454Z,2.00
2023-10-29T16:51:33.140Z,2.00
2023-10-29T16:54:01.386Z,1.85
2023-10-29T16:56:30.022Z,1.88
2023-10-29T16:59:01.179Z,2.55
2023-10-29T17:01:30.613Z,1.95
2023-10-29T17:03:58.764Z,2.00
2023-10-29T17:06:26.881Z,2.20
2023-10-29T17:08:55.389Z,2.03
2023-10-29T17:11:23.833Z,1.88
2023-10-29T17:13:52.382Z,2.30
2023-10-29T17:16:20.411Z,2.95
2023-10-29T17:18:50.676Z,2.60
2023-10-29T17:21:21.222Z,2.90
2023-10-29T17:23:51.608Z,1.52
2023-10-29T17:26:21.141Z,1.48
2023-10-29T17:28:50.245Z,1.80
2023-10-29T17:37:18.920Z,1.08
2023-10-29T17:39:49.167Z,1.25
2023-10-29T17:42:17.199Z,1.00
2023-10-29T17:44:45.398Z,0.90
2023-10-29T17:47:13.264Z,1.00
2023-10-29T17:49:40.313Z,1.00
2023-10-29T17:52:11.143Z,0.80
2023-10-29T17:54:39.643Z,1.30
2023-10-29T17:57:08.313Z,1.00
2023-10-29T17:59:38.726Z,1.02
2023-10-29T18:02:08.314Z,1.20
2023-10-29T18:04:36.314Z,1.33
2023-10-29T18:07:04.823Z,1.00
2023-10-29T18:09:34.309Z,0.90
2023-10-29T18:12:03.174Z,0.93
2023-10-29T19:54:57.638Z,1.10
2023-10-29T19:57:26.888Z,1.00
2023-10-29T19:59:55.103Z,1.60
2023-10-29T20:02:23.568Z,1.92
2023-10-29T20:04:58.837Z,1.30
2023-10-29T20:07:29.443Z,1.30
2023-10-29T20:09:58.771Z,1.30
2023-10-29T20:12:27.911Z,1.13
2023-10-29T20:14:56.153Z,1.30
2023-10-29T20:17:24.430Z,1.20
2023-10-29T20:19:52.378Z,1.35
2023-10-29T20:22:20.801Z,1.10
2023-10-29T20:24:48.772Z,1.20
2023-10-29T20:27:18.378Z,1.90
2023-10-29T20:29:46.431Z,1.90
2023-10-29T20:32:16.017Z,1.77
2023-10-29T20:34:44.119Z,1.60
2023-10-29T20:37:12.948Z,1.85
2023-10-29T20:39:41.300Z,1.25
2023-10-29T20:42:12.338Z,1.30
2023-10-29T20:44:42.077Z,1.00
2023-10-29T20:47:11.099Z,1.35
2023-10-29T20:49:39.483Z,1.40
2023-10-29T20:52:09.409Z,1.20
2023-10-29T20:54:37.619Z,1.67
2023-10-29T20:57:06.234Z,1.52
2023-10-29T20:59:34.294Z,1.35
2023-10-29T21:02:05.924Z,1.35
2023-10-29T21:04:34.043Z,1.40
2023-10-29T21:07:04.976Z,1.45
2023-10-29T21:09:33.176Z,1.25
2023-10-29T21:12:01.491Z,1.35
2023-10-29T21:14:29.593Z,1.13
2023-10-29T21:16:57.928Z,1.13
2023-10-29T21:19:38.542Z,1.00
2023-10-29T21:22:08.159Z,1.38
2023-10-29T21:24:36.640Z,1.15
2023-10-29T21:27:07.935Z,1.00
2023-10-29T21:29:36.140Z,1.33
2023-10-29T21:32:04.397Z,1.00
2023-10-29T21:34:34.644Z,1.38
2023-10-29T21:37:09.625Z,1.38
2023-10-29T21:39:38.303Z,0.80
2023-10-29T21:42:06.869Z,1.08
2023-10-29T21:44:34.765Z,1.10
2023-10-29T21:59:29.164Z,1.10
2023-10-29T22:02:01.447Z,1.08
2023-10-29T22:04:31.691Z,1.42
2023-10-29T23:01:48.522Z,1.75
2023-10-29T23:04:16.888Z,1.60
2023-10-29T23:06:47.390Z,1.90
2023-10-29T23:09:15.416Z,1.73
2023-10-29T23:11:43.559Z,1.83
2023-10-29T23:14:12.493Z,1.42
2023-10-29T23:16:43.040Z,1.50
2023-10-29T23:19:13.130Z,1.50
2023-10-29T23:21:41.204Z,1.70
2023-10-29T23:24:12.289Z,1.85
2023-10-29T23:26:40.648Z,1.55
2023-10-29T23:29:09.344Z,1.60
2023-10-29T23:31:37.678Z,1.73
